Time;durP1;ratioP1;P1;durP2;ratioP2;P2;SDS_P1;SDS_P2;PMS_P1;PMS_P2;Temp;Humidity;BMP_temperature;BMP_pressure;BME280_temperature;BME280_humidity;BME280_pressure;Samples;Min_cycle;Max_cycle;Signal;HPM_P1;HPM_P2
2021/12/21 00:02:00;;;;;;;11.65;6.90;;;3.70;66.20;;;;;;5055535;28;20037;-25
2021/12/21 00:04:26;;;;;;;8.10;4.80;;;3.80;65.90;;;;;;5054993;28;20396;-26
2021/12/21 00:06:52;;;;;;;7.72;3.92;;;3.90;65.70;;;;;;5055101;28;20400;-25
2021/12/21 00:09:18;;;;;;;6.93;4.18;;;3.90;65.50;;;;;;5054991;28;20040;-26
2021/12/21 00:11:44;;;;;;;10.93;6.22;;;3.90;65.50;;;;;;5054533;28;20025;-25
2021/12/21 00:14:17;;;;;;;8.45;4.57;;;4.00;65.40;;;;;;5054951;28;20028;-25
2021/12/21 00:22:00;;;;;;;7.13;4.57;;;4.20;65.10;;;;;;5054354;28;20083;-26
2021/12/21 00:24:32;;;;;;;5.93;3.33;;;4.20;65.10;;;;;;5054631;28;20060;-25
2021/12/21 00:27:00;;;;;;;9.70;5.85;;;4.20;65.10;;;;;;5054790;28;20443;-25
2021/12/21 00:29:26;;;;;;;10.88;5.70;;;4.30;65.10;;;;;;5054943;28;20040;-25
2021/12/21 00:31:52;;;;;;;12.18;6.53;;;4.30;65.10;;;;;;5054825;28;20028;-25
2021/12/21 00:34:18;;;;;;;14.82;9.68;;;4.40;65.00;;;;;;5054724;28;20025;-25
2021/12/21 00:36:46;;;;;;;9.98;6.43;;;4.40;65.10;;;;;;5054915;28;20051;-25
2021/12/21 00:39:16;;;;;;;14.35;9.65;;;4.40;65.10;;;;;;5054516;28;20498;-26
2021/12/21 00:41:42;;;;;;;10.52;6.40;;;4.50;65.40;;;;;;5054514;28;20021;-25
2021/12/21 00:44:08;;;;;;;9.70;5.53;;;4.40;65.10;;;;;;5054381;28;20095;-25
2021/12/21 00:46:34;;;;;;;12.05;6.97;;;4.50;64.70;;;;;;5054147;28;20037;-25
2021/12/21 00:49:12;;;;;;;9.10;5.10;;;4.50;64.90;;;;;;5053030;28;20033;-24
2021/12/21 00:51:39;;;;;;;9.05;5.35;;;4.50;64.80;;;;;;5054327;28;20080;-26
2021/12/21 00:54:06;;;;;;;12.13;6.90;;;4.60;64.70;;;;;;5053028;28;20033;-26
2021/12/21 00:56:32;;;;;;;9.85;4.95;;;4.60;64.80;;;;;;5054353;28;20059;-25
2021/12/21 00:58:58;;;;;;;10.18;6.35;;;4.60;64.80;;;;;;5053094;28;20052;-25
2021/12/21 01:01:23;;;;;;;9.02;5.05;;;4.60;64.80;;;;;;5054086;28;20072;-25
2021/12/21 01:03:52;;;;;;;10.82;6.50;;;4.60;64.80;;;;;;5054037;28;20036;-26
2021/12/21 01:06:38;;;;;;;12.65;7.43;;;4.60;65.00;;;;;;5053893;28;20391;-25
2021/12/21 01:09:17;;;;;;;10.43;5.95;;;4.60;65.20;;;;;;5053917;28;20029;-25
2021/12/21 01:11:52;;;;;;;12.43;7.82;;;4.60;65.40;;;;;;5053933;28;20467;-26
2021/12/21 01:14:50;;;;;;;17.83;10.65;;;4.60;65.40;;;;;;5053975;28;20078;-25
2021/12/21 01:19:37;;;;;;;12.02;7.20;;;4.60;66.00;;;;;;5053843;28;20439;-26
2021/12/21 01:22:15;;;;;;;6.78;4.15;;;4.60;65.50;;;;;;5053959;28;20079;-25
2021/12/21 01:29:58;;;;;;;16.23;10.98;;;4.60;66.40;;;;;;5053709;28;20018;-25
2021/12/21 01:33:20;;;;;;;23.33;13.23;;;4.60;65.60;;;;;;5053718;28;20075;-25
2021/12/21 01:35:23;;;;;;;24.95;13.80;;;4.60;65.50;;;;;;5044501;28;20037;-25
2021/12/21 01:38:08;;;;;;;16.80;10.05;;;4.50;65.80;;;;;;5053498;28;20032;-25
2021/12/21 01:43:13;;;;;;;20.23;13.48;;;4.40;66.40;;;;;;5053096;28;20051;-25
2021/12/21 01:51:12;;;;;;;20.30;12.75;;;4.40;66.60;;;;;;5053814;28;20507;-26
2021/12/21 01:53:39;;;;;;;22.13;14.15;;;4.40;66.60;;;;;;5053658;28;20094;-25
2021/12/21 01:56:06;;;;;;;19.52;11.77;;;4.40;66.80;;;;;;5053246;28;20029;-26
2021/12/21 01:58:33;;;;;;;20.05;12.52;;;4.40;66.60;;;;;;5052942;28;20021;-26
2021/12/21 02:01:01;;;;;;;19.40;11.95;;;4.40;66.70;;;;;;5053088;28;20399;-25
2021/12/21 02:03:27;;;;;;;17.25;10.20;;;4.40;66.70;;;;;;5054002;28;20448;-25
2021/12/21 02:05:53;;;;;;;18.85;11.93;;;4.40;66.70;;;;;;5051872;28;20039;-24
2021/12/21 02:08:19;;;;;;;14.13;7.75;;;4.40;66.70;;;;;;5053044;28;20116;-25
2021/12/21 02:10:45;;;;;;;16.05;9.25;;;4.40;66.60;;;;;;5051863;28;20120;-25
2021/12/21 02:13:11;;;;;;;16.35;10.35;;;4.40;66.50;;;;;;5052868;28;20029;-25
2021/12/21 02:15:37;;;;;;;12.40;7.20;;;4.40;66.30;;;;;;5053110;28;20052;-25
2021/12/21 02:20:57;;;;;;;9.45;5.60;;;4.50;66.10;;;;;;5053325;28;20064;-25
2021/12/21 02:23:34;;;;;;;10.88;6.88;;;4.50;66.10;;;;;;5053261;28;20537;-26
2021/12/21 02:27:07;;;;;;;15.45;8.77;;;4.60;66.00;;;;;;5053250;28;20056;-26
2021/12/21 02:31:38;;;;;;;15.85;9.02;;;4.60;65.80;;;;;;5052921;28;20052;-26
2021/12/21 02:34:07;;;;;;;18.23;10.52;;;4.60;65.60;;;;;;5053085;28;20025;-26
2021/12/21 02:36:35;;;;;;;17.50;10.35;;;4.70;65.80;;;;;;5056936;28;20040;-26
2021/12/21 02:39:03;;;;;;;14.98;8.02;;;4.70;65.90;;;;;;5056808;28;20052;-25
2021/12/21 02:41:29;;;;;;;16.30;10.07;;;4.70;65.90;;;;;;5056570;28;20029;-25
2021/12/21 02:43:56;;;;;;;12.48;7.05;;;4.70;65.80;;;;;;5056664;28;20091;-25
2021/12/21 02:46:24;;;;;;;11.43;7.20;;;4.80;65.80;;;;;;5056409;28;20513;-25
2021/12/21 02:48:51;;;;;;;13.75;9.00;;;4.80;65.80;;;;;;5057033;28;20068;-25
2021/12/21 02:51:18;;;;;;;10.30;6.60;;;4.80;65.50;;;;;;5056913;28;20082;-26
2021/12/21 02:53:44;;;;;;;16.75;10.05;;;4.90;65.50;;;;;;5055277;28;20120;-26
2021/12/21 02:56:12;;;;;;;11.18;6.90;;;4.90;65.30;;;;;;5056478;28;20040;-25
2021/12/21 02:58:38;;;;;;;11.93;7.15;;;4.90;65.30;;;;;;5056813;28;20040;-25
2021/12/21 03:01:07;;;;;;;9.77;5.70;;;4.90;65.30;;;;;;5056377;28;20032;-25
2021/12/21 03:03:33;;;;;;;10.50;5.38;;;4.90;65.40;;;;;;5056957;28;20021;-25
2021/12/21 03:06:01;;;;;;;12.23;7.82;;;5.00;65.30;;;;;;5056619;28;20037;-24
2021/12/21 03:08:44;;;;;;;13.13;7.90;;;5.00;64.80;;;;;;5056018;28;20072;-25
2021/12/21 03:11:24;;;;;;;10.40;6.20;;;5.00;64.80;;;;;;5056607;28;20021;-25
2021/12/21 03:14:05;;;;;;;10.25;6.57;;;5.00;64.80;;;;;;5056117;28;20476;-25
2021/12/21 03:16:33;;;;;;;9.63;5.85;;;5.10;64.90;;;;;;5056254;28;20091;-25
2021/12/21 03:18:59;;;;;;;9.30;6.28;;;5.10;64.90;;;;;;5056055;28;20459;-25
2021/12/21 03:21:27;;;;;;;10.75;6.10;;;5.10;64.90;;;;;;5054850;28;20053;-25
2021/12/21 03:23:53;;;;;;;13.50;8.88;;;5.10;64.60;;;;;;5056069;28;20048;-25
2021/12/21 03:26:19;;;;;;;6.93;4.25;;;5.20;64.60;;;;;;5055779;28;20075;-25
2021/12/21 03:28:45;;;;;;;9.10;4.72;;;5.20;64.60;;;;;;5056016;28;20033;-25
2021/12/21 03:31:11;;;;;;;7.95;4.25;;;5.30;64.70;;;;;;5056149;28;20032;-25
2021/12/21 03:33:38;;;;;;;9.07;5.57;;;5.30;64.60;;;;;;5055931;28;20104;-25
2021/12/21 03:36:05;;;;;;;14.93;8.50;;;5.30;64.30;;;;;;5055709;28;20028;-25
2021/12/21 03:38:33;;;;;;;12.20;6.88;;;5.30;63.90;;;;;;5056151;28;20059;-25
2021/12/21 03:41:06;;;;;;;11.88;7.20;;;5.30;64.20;;;;;;5055698;28;20070;-25
2021/12/21 03:43:33;;;;;;;13.88;8.20;;;5.30;64.00;;;;;;5055318;28;20060;-25
2021/12/21 03:46:06;;;;;;;14.13;8.68;;;5.30;64.20;;;;;;5054129;28;20021;-25
2021/12/21 03:48:33;;;;;;;15.82;9.10;;;5.30;64.10;;;;;;5055243;28;20036;-24
2021/12/21 03:50:59;;;;;;;15.23;8.52;;;5.30;63.70;;;;;;5055720;28;20481;-26
2021/12/21 03:53:26;;;;;;;13.80;8.20;;;5.30;63.70;;;;;;5055755;28;20032;-24
2021/12/21 03:56:04;;;;;;;15.57;9.20;;;5.30;64.10;;;;;;5055391;28;20053;-25
2021/12/21 03:58:30;;;;;;;8.10;5.03;;;5.30;64.30;;;;;;5054011;28;20110;-25
2021/12/21 04:00:56;;;;;;;8.10;3.83;;;5.30;64.40;;;;;;5055916;28;20060;-25
2021/12/21 04:03:22;;;;;;;8.35;5.40;;;5.40;64.40;;;;;;5055251;28;20059;-25
2021/12/21 04:05:48;;;;;;;9.50;5.00;;;5.40;64.50;;;;;;5055331;28;20537;-25
2021/12/21 04:08:14;;;;;;;7.15;4.70;;;5.40;64.50;;;;;;5055144;28;20029;-25
2021/12/21 04:10:40;;;;;;;12.40;7.57;;;5.40;64.60;;;;;;5055157;28;20412;-25
2021/12/21 04:13:09;;;;;;;12.27;7.63;;;5.40;64.50;;;;;;5054995;28;20021;-26
2021/12/21 04:15:42;;;;;;;13.23;7.13;;;5.50;64.50;;;;;;5055268;28;20082;-25
2021/12/21 04:18:10;;;;;;;6.40;3.65;;;5.40;64.50;;;;;;5055374;28;20029;-24
2021/12/21 04:20:37;;;;;;;9.95;6.07;;;5.50;64.50;;;;;;5053519;28;20075;-25
2021/12/21 04:23:04;;;;;;;10.20;6.72;;;5.50;64.30;;;;;;5055518;28;20541;-25
2021/12/21 04:25:31;;;;;;;14.40;9.05;;;5.50;64.40;;;;;;5054022;28;20120;-25
2021/12/21 04:27:57;;;;;;;12.38;6.75;;;5.50;64.30;;;;;;5054639;28;20108;-24
2021/12/21 04:30:24;;;;;;;9.65;5.63;;;5.50;64.10;;;;;;5054648;28;20048;-25
2021/12/21 04:32:50;;;;;;;8.23;5.40;;;5.50;64.10;;;;;;5054749;28;20029;-25
2021/12/21 04:35:19;;;;;;;6.90;3.88;;;5.50;64.30;;;;;;5053432;28;20059;-25
2021/12/21 04:38:00;;;;;;;6.10;3.45;;;5.50;64.30;;;;;;5054911;28;20033;-25
2021/12/21 04:40:39;;;;;;;6.80;4.40;;;5.60;64.30;;;;;;5054698;28;20059;-24
2021/12/21 04:43:06;;;;;;;9.23;6.15;;;5.60;64.30;;;;;;5054299;28;20057;-26
2021/12/21 04:45:33;;;;;;;8.90;5.13;;;5.60;64.20;;;;;;5054630;28;20493;-24
2021/12/21 04:47:59;;;;;;;4.95;2.90;;;5.60;64.20;;;;;;5054338;28;20036;-25
2021/12/21 04:50:25;;;;;;;4.65;2.95;;;5.70;64.10;;;;;;5054123;28;20586;-25
2021/12/21 04:52:52;;;;;;;6.28;3.60;;;5.70;64.10;;;;;;5054218;28;20492;-25
2021/12/21 04:55:17;;;;;;;7.40;4.32;;;5.70;64.10;;;;;;5054151;28;20488;-26
2021/12/21 04:57:43;;;;;;;6.28;3.50;;;5.70;64.00;;;;;;5054185;28;20040;-25
2021/12/21 05:00:12;;;;;;;7.38;4.50;;;5.80;64.00;;;;;;5054138;28;20079;-25
2021/12/21 05:02:39;;;;;;;9.50;5.75;;;5.80;63.30;;;;;;5054369;28;20036;-24
2021/12/21 05:05:06;;;;;;;8.52;4.53;;;5.80;63.30;;;;;;5054312;28;20036;-25
2021/12/21 05:07:35;;;;;;;10.55;5.78;;;5.80;63.30;;;;;;5053906;28;20037;-25
2021/12/21 05:10:04;;;;;;;12.27;6.20;;;5.80;62.80;;;;;;5053972;28;20032;-25
2021/12/21 05:12:30;;;;;;;11.57;6.65;;;5.80;61.20;;;;;;5053637;28;20511;-25
2021/12/21 05:14:57;;;;;;;7.57;4.38;;;5.80;61.80;;;;;;5054184;28;20029;-25
2021/12/21 05:17:23;;;;;;;7.68;4.85;;;5.80;61.70;;;;;;5053832;28;20477;-25
2021/12/21 05:19:50;;;;;;;9.10;5.40;;;5.90;62.70;;;;;;5053809;28;20041;-24
2021/12/21 05:22:16;;;;;;;7.40;4.25;;;5.90;62.40;;;;;;5053835;28;20029;-25
2021/12/21 05:24:43;;;;;;;11.63;6.70;;;5.90;62.50;;;;;;5053986;28;20098;-25
2021/12/21 05:27:10;;;;;;;12.38;7.10;;;5.90;62.20;;;;;;5053658;28;20029;-25
2021/12/21 05:29:37;;;;;;;7.88;4.85;;;5.90;62.30;;;;;;5054304;28;20495;-24
2021/12/21 05:32:05;;;;;;;9.23;5.38;;;5.90;62.30;;;;;;5054007;28;20090;-25
2021/12/21 05:34:32;;;;;;;10.18;6.30;;;6.00;62.40;;;;;;5053356;28;20090;-25
2021/12/21 05:37:00;;;;;;;10.85;6.20;;;6.00;61.60;;;;;;5053501;28;20029;-25
2021/12/21 05:39:38;;;;;;;10.80;5.95;;;5.90;62.10;;;;;;5053763;28;20017;-24
2021/12/21 05:42:05;;;;;;;12.75;6.93;;;6.00;62.50;;;;;;5053218;28;20057;-25
2021/12/21 05:44:32;;;;;;;8.48;5.28;;;6.00;62.60;;;;;;5053136;28;20029;-26
2021/12/21 05:46:58;;;;;;;10.35;5.72;;;6.00;63.10;;;;;;5053332;28;20071;-27
2021/12/21 05:49:24;;;;;;;11.45;5.90;;;6.00;63.60;;;;;;5052364;28;20036;-28
2021/12/21 05:51:50;;;;;;;8.23;4.40;;;6.00;63.70;;;;;;5053237;28;20018;-26
2021/12/21 05:54:21;;;;;;;7.22;3.58;;;6.00;63.10;;;;;;5053032;28;20025;-27
2021/12/21 05:56:47;;;;;;;4.78;2.97;;;6.00;63.30;;;;;;5053543;28;20025;-26
2021/12/21 05:59:14;;;;;;;5.32;3.65;;;6.00;63.40;;;;;;5053497;28;20530;-26
2021/12/21 06:01:40;;;;;;;5.32;3.17;;;6.10;63.50;;;;;;5053130;28;20116;-27
2021/12/21 06:04:06;;;;;;;7.15;4.40;;;6.10;63.40;;;;;;5053086;28;20112;-26
2021/12/21 06:06:33;;;;;;;3.97;2.70;;;6.00;63.50;;;;;;5053229;28;20060;-25
2021/12/21 06:09:04;;;;;;;9.88;5.20;;;6.10;63.30;;;;;;5052735;28;20025;-25
2021/12/21 06:11:33;;;;;;;7.82;4.20;;;6.10;62.80;;;;;;5053372;28;20025;-24
2021/12/21 06:14:15;;;;;;;10.30;4.82;;;6.00;63.20;;;;;;5052880;28;20496;-25
2021/12/21 06:27:17;;;;;;;7.22;4.65;;;6.00;63.40;;;;;;5053510;28;20487;-25
2021/12/21 06:29:44;;;;;;;5.85;3.60;;;6.00;63.70;;;;;;5051559;28;20021;-25
2021/12/21 06:32:12;;;;;;;8.90;4.40;;;6.00;63.70;;;;;;5053098;28;20025;-25
2021/12/21 06:34:39;;;;;;;9.65;5.82;;;6.00;63.70;;;;;;5052822;28;20025;-24
2021/12/21 06:37:05;;;;;;;14.98;7.22;;;6.00;63.90;;;;;;5053382;28;20017;-25
2021/12/21 06:39:33;;;;;;;11.93;6.82;;;6.00;64.20;;;;;;5053082;28;20547;-24
2021/12/21 06:42:01;;;;;;;11.35;7.03;;;6.00;64.30;;;;;;5052961;28;20053;-25
2021/12/21 06:44:27;;;;;;;11.70;7.63;;;6.00;64.30;;;;;;5052372;28;20032;-26
2021/12/21 06:52:05;;;;;;;12.40;6.82;;;5.90;63.50;;;;;;5053224;28;20121;-25
2021/12/21 06:54:31;;;;;;;12.45;8.00;;;5.90;63.20;;;;;;5053485;28;20025;-25
2021/12/21 06:56:57;;;;;;;9.98;6.15;;;5.90;63.40;;;;;;5052556;28;20387;-24
2021/12/21 06:59:23;;;;;;;10.82;7.47;;;5.90;63.60;;;;;;5051245;28;20441;-25
2021/12/21 07:01:49;;;;;;;14.07;8.13;;;5.90;63.20;;;;;;5052524;28;20120;-25
2021/12/21 07:04:19;;;;;;;11.95;8.02;;;5.90;63.20;;;;;;5052599;28;20017;-26
2021/12/21 07:06:46;;;;;;;10.23;6.32;;;5.90;63.30;;;;;;5052811;28;20029;-24
2021/12/21 07:11:47;;;;;;;12.13;6.90;;;5.90;63.00;;;;;;5052519;28;20033;-25
2021/12/21 07:19:45;;;;;;;13.10;8.82;;;5.90;62.00;;;;;;5052740;28;20114;-25
2021/12/21 07:22:12;;;;;;;16.52;7.60;;;5.90;62.10;;;;;;5054306;28;20083;-26
2021/12/21 07:24:38;;;;;;;13.02;7.28;;;5.90;62.00;;;;;;5054846;28;20033;-24
2021/12/21 07:27:04;;;;;;;10.20;6.18;;;6.00;62.10;;;;;;5056245;28;20116;-24
2021/12/21 07:29:30;;;;;;;14.27;8.48;;;6.00;62.50;;;;;;5054500;28;20029;-25
2021/12/21 07:31:56;;;;;;;12.75;7.15;;;6.00;61.50;;;;;;5056038;28;20082;-26
2021/12/21 07:34:22;;;;;;;10.52;6.28;;;6.00;62.00;;;;;;5055930;28;20063;-24
2021/12/21 07:36:48;;;;;;;13.07;7.95;;;6.00;61.90;;;;;;5055998;28;20075;-25
2021/12/21 07:39:18;;;;;;;11.07;6.60;;;6.00;61.90;;;;;;5055693;28;20472;-24
2021/12/21 07:41:46;;;;;;;11.65;7.53;;;6.10;61.90;;;;;;5055836;28;20521;-25
2021/12/21 07:44:13;;;;;;;15.25;8.98;;;6.10;62.10;;;;;;5055583;28;20024;-26
2021/12/21 07:46:41;;;;;;;12.38;7.78;;;6.10;61.70;;;;;;5054367;28;20025;-25
2021/12/21 07:49:08;;;;;;;12.88;7.97;;;6.10;61.80;;;;;;5055746;28;20059;-26
2021/12/21 07:51:35;;;;;;;10.85;6.70;;;6.10;61.70;;;;;;5055741;28;20037;-24
2021/12/21 07:54:01;;;;;;;13.07;7.78;;;6.10;61.80;;;;;;5056076;28;20021;-25
2021/12/21 07:56:27;;;;;;;12.27;7.00;;;6.10;61.80;;;;;;5055291;28;20099;-25
2021/12/21 07:58:53;;;;;;;11.02;7.05;;;6.10;61.50;;;;;;5055252;28;20469;-25
2021/12/21 08:01:20;;;;;;;13.75;8.18;;;6.10;61.60;;;;;;5055633;28;20032;-25
2021/12/21 08:03:46;;;;;;;11.35;6.85;;;6.20;61.50;;;;;;5055279;28;20021;-25
2021/12/21 08:06:14;;;;;;;12.40;6.88;;;6.20;61.80;;;;;;5053790;28;20021;-33
2021/12/21 08:08:43;;;;;;;13.50;7.90;;;6.20;61.60;;;;;;5055097;28;20538;-25
2021/12/21 08:11:17;;;;;;;13.43;7.57;;;6.20;60.80;;;;;;5055422;28;20025;-24
2021/12/21 08:13:45;;;;;;;;;;;6.20;61.40;;;;;;5056132;28;20035;-25
2021/12/21 08:16:11;;;;;;;11.70;6.95;;;6.30;61.20;;;;;;5055943;28;19955;-24
2021/12/21 08:18:38;;;;;;;13.00;7.35;;;6.20;61.40;;;;;;5055024;28;20035;-25
2021/12/21 08:21:05;;;;;;;15.10;7.55;;;6.30;61.20;;;;;;5055226;28;20029;-26
2021/12/21 08:23:32;;;;;;;13.55;6.90;;;6.30;61.30;;;;;;5054881;28;20082;-27
2021/12/21 08:25:58;;;;;;;12.65;7.97;;;6.30;61.30;;;;;;5055410;28;20032;-26
2021/12/21 08:28:25;;;;;;;13.40;7.38;;;6.30;61.30;;;;;;5054707;28;20029;-26
2021/12/21 08:30:52;;;;;;;16.58;8.60;;;6.30;61.20;;;;;;5055103;28;20029;-27
2021/12/21 08:33:18;;;;;;;14.15;8.30;;;6.30;61.20;;;;;;5054165;28;20036;-26
2021/12/21 08:35:46;;;;;;;16.80;9.68;;;6.30;61.60;;;;;;5054577;28;20070;-26
2021/12/21 08:38:15;;;;;;;13.40;8.88;;;6.30;61.10;;;;;;5054854;28;20100;-26
2021/12/21 08:40:45;;;;;;;12.93;8.00;;;6.30;61.40;;;;;;5054854;28;20028;-25
2021/12/21 08:43:14;;;;;;;11.82;6.85;;;6.40;61.50;;;;;;5054240;28;20049;-27
2021/12/21 08:45:44;;;;;;;16.65;9.30;;;6.40;61.40;;;;;;5054802;28;20028;-25
2021/12/21 08:48:13;;;;;;;14.20;8.18;;;6.30;60.90;;;;;;5054712;28;20029;-25
2021/12/21 08:50:39;;;;;;;13.60;8.52;;;6.40;61.40;;;;;;5055282;28;20021;-25
2021/12/21 08:53:05;;;;;;;14.32;8.63;;;6.40;61.50;;;;;;5054639;28;20448;-26
2021/12/21 08:55:34;;;;;;;16.27;8.65;;;6.40;61.00;;;;;;5054276;28;20060;-27
2021/12/21 08:58:00;;;;;;;16.05;8.02;;;6.40;61.30;;;;;;5054129;28;20024;-25
2021/12/21 09:00:26;;;;;;;15.65;8.57;;;6.40;61.20;;;;;;5052844;28;20021;-26
2021/12/21 09:02:53;;;;;;;18.70;9.98;;;6.50;61.40;;;;;;5054150;28;20036;-24
2021/12/21 09:05:26;;;;;;;19.38;9.85;;;6.50;61.20;;;;;;5054078;28;20025;-26
2021/12/21 09:07:53;;;;;;;15.95;9.50;;;6.50;61.10;;;;;;5054121;28;20033;-26
2021/12/21 09:10:21;;;;;;;17.85;10.05;;;6.40;61.30;;;;;;5053904;28;20091;-26
2021/12/21 09:12:49;;;;;;;15.38;9.05;;;6.50;61.00;;;;;;5053870;28;20025;-26
2021/12/21 09:15:16;;;;;;;22.30;10.02;;;6.50;60.90;;;;;;5054138;28;20074;-26
2021/12/21 09:17:44;;;;;;;15.60;8.73;;;6.50;61.10;;;;;;5054131;28;20090;-24
2021/12/21 09:20:15;;;;;;;14.10;8.73;;;6.50;61.00;;;;;;5053799;28;20055;-25
2021/12/21 09:22:42;;;;;;;16.70;9.65;;;6.40;60.90;;;;;;5054342;28;20049;-25
2021/12/21 09:25:09;;;;;;;13.38;7.78;;;6.40;60.70;;;;;;5053707;28;20500;-25
2021/12/21 09:27:36;;;;;;;12.48;8.02;;;6.40;61.00;;;;;;5053611;28;20488;-26
2021/12/21 09:30:05;;;;;;;10.77;6.40;;;6.40;61.20;;;;;;5053710;28;20031;-26
2021/12/21 09:32:31;;;;;;;14.90;8.40;;;6.40;61.40;;;;;;5053316;28;20119;-25
2021/12/21 09:34:56;;;;;;;16.55;9.82;;;6.40;61.10;;;;;;5052634;28;20052;-26
2021/12/21 09:37:23;;;;;;;18.05;8.93;;;6.40;60.80;;;;;;5053803;28;20112;-25
2021/12/21 09:39:54;;;;;;;16.20;9.18;;;6.40;61.10;;;;;;5053499;28;20032;-26
2021/12/21 09:42:23;;;;;;;15.43;8.73;;;6.40;61.50;;;;;;5052998;28;20110;-26
2021/12/21 09:44:50;;;;;;;14.65;8.18;;;6.40;62.10;;;;;;5052513;28;20063;-26
2021/12/21 09:47:16;;;;;;;14.02;7.28;;;6.40;62.50;;;;;;5053252;28;20039;-23
2021/12/21 09:49:45;;;;;;;14.02;6.68;;;6.40;61.80;;;;;;5053483;28;20025;-28
2021/12/21 09:52:14;;;;;;;15.40;7.53;;;6.60;61.70;;;;;;5056357;28;20041;-19
2021/12/21 09:54:40;;;;;;;14.50;7.65;;;6.80;60.80;;;;;;5041351;28;20068;-27
2021/12/21 09:57:07;;;;;;;11.88;6.82;;;6.90;59.90;;;;;;5049922;28;20025;-25
2021/12/21 09:59:34;;;;;;;12.23;6.70;;;7.00;60.00;;;;;;5052952;28;20025;-28
2021/12/21 10:02:02;;;;;;;13.77;7.25;;;6.90;60.30;;;;;;4915460;28;30875;-28
2021/12/21 10:04:29;;;;;;;12.52;6.68;;;6.90;60.30;;;;;;5031938;28;20026;-26
2021/12/21 10:06:57;;;;;;;11.82;7.18;;;6.90;60.30;;;;;;5013221;28;20042;-22
2021/12/21 10:09:33;;;;;;;12.38;6.85;;;6.80;60.40;;;;;;5011457;28;20453;-22
2021/12/21 10:11:59;;;;;;;12.55;7.40;;;6.80;60.60;;;;;;5012546;28;20021;-22
2021/12/21 10:14:26;;;;;;;12.13;7.80;;;6.80;60.80;;;;;;5012076;28;20481;-22
2021/12/21 10:17:07;;;;;;;10.23;5.93;;;6.70;60.90;;;;;;5012059;28;20470;-23
2021/12/21 10:19:34;;;;;;;10.25;6.43;;;6.70;61.20;;;;;;5012753;28;20125;-24
2021/12/21 10:22:15;;;;;;;15.30;8.07;;;6.70;61.10;;;;;;5012631;28;20458;-22
2021/12/21 10:24:49;;;;;;;12.50;7.07;;;6.70;60.90;;;;;;5012829;28;20061;-24
2021/12/21 10:27:18;;;;;;;13.00;8.38;;;6.70;61.40;;;;;;5013652;28;20032;-24
2021/12/21 10:29:50;;;;;;;14.63;8.85;;;6.70;61.60;;;;;;5013327;28;20030;-23
2021/12/21 10:32:22;;;;;;;12.98;7.80;;;6.70;61.50;;;;;;5013091;28;20469;-22
2021/12/21 10:35:10;;;;;;;13.40;7.10;;;6.70;61.40;;;;;;5013261;28;20362;-23
2021/12/21 10:37:39;;;;;;;12.15;6.28;;;6.70;61.60;;;;;;5013625;28;20028;-23
2021/12/21 10:40:23;;;;;;;15.95;8.52;;;6.80;61.70;;;;;;5013489;28;20058;-23
2021/12/21 10:42:53;;;;;;;13.27;6.85;;;6.80;61.70;;;;;;5013049;28;20049;-23
2021/12/21 10:45:26;;;;;;;12.05;6.88;;;6.80;61.70;;;;;;5013406;28;20026;-22
2021/12/21 10:47:52;;;;;;;11.18;5.85;;;6.90;61.80;;;;;;5011921;28;20092;-24
2021/12/21 10:50:18;;;;;;;14.48;7.82;;;6.90;61.50;;;;;;5011623;28;20025;-23
2021/12/21 10:52:51;;;;;;;11.77;7.00;;;6.90;61.50;;;;;;5013705;28;20117;-22
2021/12/21 10:55:44;;;;;;;12.18;6.95;;;6.90;61.70;;;;;;5013742;28;20032;-23
2021/12/21 10:58:18;;;;;;;12.50;8.13;;;7.00;61.70;;;;;;5016819;28;20121;-22
2021/12/21 11:01:00;;;;;;;13.05;8.15;;;7.00;61.60;;;;;;5016951;28;20076;-22
2021/12/21 11:03:45;;;;;;;13.88;7.70;;;7.10;61.60;;;;;;5017575;28;20034;-23
2021/12/21 11:06:14;;;;;;;;;;;7.10;61.60;;;;;;5017407;28;20496;-22
2021/12/21 11:08:45;;;;;;;13.38;7.85;;;7.10;61.50;;;;;;5016828;28;19914;-23
2021/12/21 11:11:42;;;;;;;9.57;6.18;;;7.10;61.60;;;;;;5016931;28;20105;-22
2021/12/21 11:14:13;;;;;;;11.50;6.28;;;7.20;61.20;;;;;;5016678;28;20064;-22
2021/12/21 11:16:49;;;;;;;12.13;6.82;;;7.20;61.40;;;;;;5016373;28;20022;-23
2021/12/21 11:19:17;;;;;;;14.98;8.60;;;7.20;61.00;;;;;;5016869;28;20104;-22
2021/12/21 11:21:44;;;;;;;9.82;6.20;;;7.20;60.90;;;;;;5016377;28;20544;-23
2021/12/21 11:24:20;;;;;;;13.73;7.72;;;7.20;61.20;;;;;;5016387;28;20041;-23
2021/12/21 11:26:47;;;;;;;14.25;8.82;;;7.30;61.50;;;;;;5016383;28;20030;-22
2021/12/21 11:29:17;;;;;;;14.20;8.75;;;7.30;61.70;;;;;;5016281;28;20022;-22
2021/12/21 11:31:47;;;;;;;14.32;7.78;;;7.30;61.70;;;;;;5016236;28;20057;-21
2021/12/21 11:34:17;;;;;;;13.43;8.70;;;7.30;61.40;;;;;;5015953;28;20076;-23
2021/12/21 11:39:38;;;;;;;17.23;9.18;;;7.40;61.50;;;;;;5016416;28;20033;-21
2021/12/21 11:42:07;;;;;;;11.55;6.35;;;7.40;61.20;;;;;;5015750;28;20053;-21
2021/12/21 11:45:03;;;;;;;12.13;8.10;;;7.40;61.40;;;;;;5016021;28;20053;-22
2021/12/21 11:47:40;;;;;;;10.13;6.68;;;7.50;61.30;;;;;;5016142;28;20127;-22
2021/12/21 11:50:09;;;;;;;11.48;7.45;;;7.50;61.50;;;;;;5015986;28;20087;-22
2021/12/21 11:52:53;;;;;;;12.93;7.15;;;7.50;61.20;;;;;;5015684;28;20065;-23
2021/12/21 11:55:23;;;;;;;9.10;5.70;;;7.60;61.30;;;;;;5016296;28;20505;-22
2021/12/21 11:57:52;;;;;;;11.50;6.63;;;7.70;61.30;;;;;;5016452;28;20076;-22
2021/12/21 12:00:20;;;;;;;11.05;6.28;;;7.70;61.30;;;;;;5015661;28;20048;-21
2021/12/21 12:02:49;;;;;;;11.82;7.78;;;7.70;61.30;;;;;;5015587;28;20030;-22
2021/12/21 12:05:25;;;;;;;11.73;7.85;;;7.80;60.50;;;;;;5015542;28;20559;-22
2021/12/21 12:08:09;;;;;;;14.43;8.88;;;7.80;60.60;;;;;;5014904;28;20085;-23
2021/12/21 12:10:38;;;;;;;16.15;9.07;;;7.90;60.60;;;;;;5014223;28;20100;-23
2021/12/21 12:13:29;;;;;;;11.55;7.65;;;7.90;60.30;;;;;;5015586;28;20018;-23
2021/12/21 12:16:02;;;;;;;13.70;7.82;;;7.90;60.30;;;;;;5012647;28;20038;-23
2021/12/21 12:18:34;;;;;;;17.48;9.85;;;7.90;60.70;;;;;;5015196;28;20085;-22
2021/12/21 12:21:11;;;;;;;15.73;9.07;;;7.90;60.40;;;;;;5015642;28;20025;-22
2021/12/21 12:24:05;;;;;;;18.48;10.23;;;7.90;60.00;;;;;;5015261;28;20375;-22
2021/12/21 12:26:36;;;;;;;30.33;13.55;;;8.00;60.00;;;;;;5014700;28;20038;-22
2021/12/21 12:29:14;;;;;;;19.30;9.60;;;8.00;60.00;;;;;;5015262;28;20109;-23
2021/12/21 12:31:45;;;;;;;25.20;13.13;;;8.00;59.90;;;;;;5015674;28;20519;-24
2021/12/21 12:34:23;;;;;;;16.75;9.38;;;8.00;60.00;;;;;;5015107;28;20502;-23
2021/12/21 12:36:51;;;;;;;15.13;8.82;;;8.00;60.20;;;;;;5015015;28;20393;-22
2021/12/21 12:39:59;;;;;;;17.15;10.30;;;8.00;60.20;;;;;;5015185;28;20022;-23
2021/12/21 12:42:28;;;;;;;22.27;12.10;;;8.10;59.80;;;;;;5012407;28;20208;-24
2021/12/21 12:45:11;;;;;;;21.60;11.77;;;8.10;60.20;;;;;;4996213;28;20033;-23
2021/12/21 12:47:46;;;;;;;21.83;12.27;;;8.10;60.10;;;;;;5012719;28;20041;-22
2021/12/21 12:50:30;;;;;;;16.08;9.25;;;8.10;60.10;;;;;;5012702;28;20028;-22
2021/12/21 12:53:01;;;;;;;17.13;10.40;;;8.20;60.00;;;;;;5012687;28;20537;-24
2021/12/21 12:55:42;;;;;;;11.38;6.72;;;8.20;60.00;;;;;;5012635;28;20509;-22
2021/12/21 12:58:20;;;;;;;15.82;8.98;;;8.20;60.30;;;;;;5012650;28;20033;-21
2021/12/21 13:01:05;;;;;;;16.20;9.55;;;8.20;60.10;;;;;;5012510;28;20485;-22
2021/12/21 13:03:43;;;;;;;17.10;11.07;;;8.20;59.90;;;;;;5012547;28;20034;-22
2021/12/21 13:06:12;;;;;;;12.80;8.07;;;8.20;59.60;;;;;;5013195;28;20116;-22
2021/12/21 13:08:40;;;;;;;17.42;9.63;;;8.20;60.00;;;;;;5012281;28;20057;-22
2021/12/21 13:11:10;;;;;;;15.02;8.57;;;8.20;60.40;;;;;;5012275;28;20033;-22
2021/12/21 13:13:37;;;;;;;9.43;5.45;;;8.20;59.90;;;;;;5012209;28;20030;-22
2021/12/21 13:16:09;;;;;;;10.05;5.68;;;8.20;60.50;;;;;;5012280;28;20525;-24
2021/12/21 13:18:44;;;;;;;12.88;7.95;;;8.30;60.40;;;;;;5012957;28;20044;-24
2021/12/21 13:21:29;;;;;;;15.68;9.02;;;8.30;60.30;;;;;;5014588;28;20018;-23
2021/12/21 13:24:02;;;;;;;15.05;9.18;;;8.30;60.20;;;;;;5014497;28;20038;-22
2021/12/21 13:26:37;;;;;;;18.48;10.05;;;8.30;60.20;;;;;;5014190;28;20022;-24
2021/12/21 13:29:05;;;;;;;16.60;9.38;;;8.30;60.10;;;;;;5014284;28;20030;-23
2021/12/21 13:31:32;;;;;;;15.63;9.98;;;8.30;60.10;;;;;;5014339;28;20038;-22
2021/12/21 13:34:01;;;;;;;15.38;9.25;;;8.30;59.90;;;;;;5014070;28;20053;-22
2021/12/21 13:36:38;;;;;;;13.77;7.60;;;8.30;60.00;;;;;;5013947;28;20030;-21
2021/12/21 13:39:23;;;;;;;14.25;7.57;;;8.30;60.10;;;;;;5014180;28;20033;-23
2021/12/21 13:41:54;;;;;;;12.25;8.05;;;8.30;59.90;;;;;;5013639;28;20054;-22
2021/12/21 13:44:27;;;;;;;13.23;6.72;;;8.30;60.00;;;;;;5013896;28;20034;-22
2021/12/21 13:46:55;;;;;;;12.25;7.00;;;8.20;59.80;;;;;;5014168;28;20022;-22
2021/12/21 13:49:20;;;;;;;15.13;9.55;;;8.20;60.10;;;;;;5013675;28;20072;-22
2021/12/21 13:51:53;;;;;;;11.20;6.95;;;8.20;59.80;;;;;;5013941;28;20065;-23
2021/12/21 13:54:20;;;;;;;13.82;7.10;;;8.20;59.90;;;;;;5012391;28;20381;-22
2021/12/21 13:56:48;;;;;;;13.23;8.38;;;8.20;60.30;;;;;;5013500;28;20478;-22